createdAt,value
2023-01-17T00:00:49.370Z,17.62
2023-01-17T00:10:32.042Z,17.36
2023-01-17T00:13:07.756Z,17.40
2023-01-17T00:15:46.134Z,17.34
2023-01-17T00:26:14.662Z,17.30
2023-01-17T00:28:52.812Z,17.21
2023-01-17T00:31:40.752Z,17.29
2023-01-17T00:34:28.532Z,17.21
2023-01-17T00:37:13.339Z,17.24
2023-01-17T00:39:46.092Z,17.15
2023-01-17T00:42:18.811Z,17.17
2023-01-17T00:49:18.920Z,17.16
2023-01-17T00:51:45.290Z,17.10
2023-01-17T00:58:17.131Z,17.12
2023-01-17T01:00:55.463Z,17.11
2023-01-17T01:14:39.184Z,17.04
2023-01-17T01:31:24.064Z,16.94
2023-01-17T01:34:05.631Z,16.88
2023-01-17T01:37:00.696Z,16.88
2023-01-17T01:40:01.211Z,16.97
2023-01-17T01:42:54.946Z,16.89
2023-01-17T01:45:32.373Z,16.90
2023-01-17T01:48:36.766Z,16.94
2023-01-17T01:51:15.333Z,16.85
2023-01-17T01:53:59.858Z,16.85
2023-01-17T01:56:33.515Z,17.00
2023-01-17T01:59:23.822Z,16.89
2023-01-17T02:02:00.424Z,16.83
2023-01-17T02:05:46.069Z,16.91
2023-01-17T02:08:34.552Z,16.84
2023-01-17T02:11:13.809Z,16.82
2023-01-17T02:14:01.494Z,16.80
2023-01-17T02:17:28.830Z,16.74
2023-01-17T02:20:55.310Z,16.91
2023-01-17T02:24:03.882Z,16.81
2023-01-17T02:27:09.537Z,16.78
2023-01-17T02:30:29.005Z,16.80
2023-01-17T02:34:15.703Z,16.79
2023-01-17T02:37:35.021Z,16.77
2023-01-17T02:40:26.646Z,16.65
2023-01-17T02:43:08.657Z,16.62
2023-01-17T02:45:50.132Z,16.62
2023-01-17T02:52:12.403Z,16.70
2023-01-17T02:55:29.846Z,16.63
2023-01-17T02:58:48.305Z,16.67
2023-01-17T03:01:48.984Z,16.61
2023-01-17T03:05:34.480Z,16.67
2023-01-17T03:08:27.760Z,16.65
2023-01-17T03:11:09.249Z,16.59
2023-01-17T03:13:58.078Z,16.57
2023-01-17T03:16:33.506Z,16.55
2023-01-17T03:22:14.019Z,16.48
2023-01-17T03:24:50.575Z,16.46
2023-01-17T03:27:32.535Z,16.53
2023-01-17T03:30:17.954Z,16.53
2023-01-17T03:36:08.462Z,16.47
2023-01-17T03:38:49.651Z,16.47
2023-01-17T03:41:41.095Z,16.48
2023-01-17T03:44:31.940Z,16.51
2023-01-17T03:47:07.730Z,16.39
2023-01-17T03:49:43.639Z,16.40
2023-01-17T03:52:16.320Z,16.42
2023-01-17T03:54:56.547Z,16.42
2023-01-17T03:57:31.862Z,16.35
2023-01-17T04:00:17.232Z,16.42
2023-01-17T04:02:53.212Z,16.39
2023-01-17T04:05:32.212Z,16.40
2023-01-17T04:08:07.225Z,16.36
2023-01-17T04:10:39.960Z,16.32
2023-01-17T04:13:16.768Z,16.38
2023-01-17T04:15:58.923Z,16.33
2023-01-17T04:18:36.619Z,16.31
2023-01-17T04:21:27.570Z,16.33
2023-01-17T04:24:06.840Z,16.27
2023-01-17T04:26:48.514Z,16.27
2023-01-17T04:29:32.984Z,16.28
2023-01-17T04:32:18.217Z,16.29
2023-01-17T04:39:01.271Z,16.25
2023-01-17T04:41:34.035Z,16.25
2023-01-17T04:44:09.756Z,16.21
2023-01-17T04:46:42.373Z,16.21
2023-01-17T04:49:15.159Z,16.25
2023-01-17T04:51:53.854Z,16.26
2023-01-17T04:54:26.542Z,16.22
2023-01-17T04:57:04.330Z,16.19
2023-01-17T04:59:48.311Z,16.17
2023-01-17T05:02:29.372Z,16.18
2023-01-17T05:05:15.439Z,16.22
2023-01-17T05:08:02.555Z,16.15
2023-01-17T05:10:35.464Z,16.19
2023-01-17T05:13:09.165Z,16.11
2023-01-17T05:15:42.117Z,16.09
2023-01-17T05:18:17.288Z,16.06
2023-01-17T05:21:05.773Z,16.15
2023-01-17T05:23:38.620Z,16.11
2023-01-17T05:26:14.690Z,16.08
2023-01-17T05:29:01.672Z,16.09
2023-01-17T05:31:34.293Z,16.04
2023-01-17T05:34:07.070Z,16.06
2023-01-17T05:36:39.712Z,16.08
2023-01-17T05:39:14.839Z,15.98
2023-01-17T05:41:47.923Z,15.98
2023-01-17T05:44:23.638Z,16.03
2023-01-17T05:46:59.636Z,16.01
2023-01-17T05:49:32.598Z,15.97
2023-01-17T05:52:05.485Z,15.96
2023-01-17T05:54:48.011Z,16.01
2023-01-17T05:57:34.035Z,16.04
2023-01-17T06:00:08.091Z,15.98
2023-01-17T06:02:59.425Z,16.00
2023-01-17T06:05:32.127Z,16.06
2023-01-17T06:08:21.825Z,16.13
2023-01-17T06:10:54.751Z,16.10
2023-01-17T06:13:28.627Z,16.17
2023-01-17T06:16:04.326Z,16.16
2023-01-17T06:18:54.008Z,16.25
2023-01-17T06:21:34.737Z,16.27
2023-01-17T06:24:25.875Z,16.34
2023-01-17T06:26:58.575Z,16.41
2023-01-17T06:29:31.903Z,16.43
2023-01-17T06:32:05.093Z,16.54
2023-01-17T06:35:24.225Z,16.66
2023-01-17T06:38:00.602Z,16.66
2023-01-17T06:40:33.849Z,16.68
2023-01-17T06:47:00.934Z,16.96
2023-01-17T06:50:32.506Z,17.05
2023-01-17T06:53:54.775Z,17.15
2023-01-17T07:04:07.434Z,17.36
2023-01-17T07:08:10.388Z,17.46
2023-01-17T07:28:49.453Z,17.63
2023-01-17T07:47:33.293Z,17.75
2023-01-17T07:58:51.392Z,17.82
2023-01-17T08:01:25.270Z,17.74
2023-01-17T08:04:10.617Z,17.81
2023-01-17T08:10:42.316Z,17.85
2023-01-17T08:16:56.583Z,17.85
2023-01-17T08:19:30.484Z,17.82
2023-01-17T08:26:32.171Z,17.78
2023-01-17T08:33:49.844Z,17.87
2023-01-17T08:47:25.060Z,17.82
2023-01-17T09:25:37.583Z,17.99
2023-01-17T09:28:14.097Z,17.90
2023-01-17T09:33:42.990Z,17.99
2023-01-17T09:36:19.621Z,17.95
2023-01-17T09:39:04.982Z,18.04
2023-01-17T09:41:51.314Z,18.04
2023-01-17T10:26:02.616Z,18.40
2023-01-17T10:43:38.678Z,18.47
2023-01-17T10:47:51.592Z,18.53
2023-01-17T10:51:08.215Z,18.46
2023-01-17T11:02:30.629Z,18.61
2023-01-17T11:05:34.759Z,18.55
2023-01-17T11:13:16.859Z,18.69
2023-01-17T11:23:57.477Z,18.63
2023-01-17T11:26:34.365Z,18.65
2023-01-17T11:29:37.610Z,18.76
2023-01-17T11:32:22.382Z,18.80
2023-01-17T11:35:10.193Z,18.81
2023-01-17T11:38:22.227Z,18.84
2023-01-17T11:41:17.912Z,18.82
2023-01-17T11:44:16.643Z,18.84
2023-01-17T11:47:14.484Z,18.86
2023-01-17T11:49:50.613Z,18.88
2023-01-17T11:52:33.068Z,18.84
2023-01-17T11:55:15.283Z,18.87
2023-01-17T11:58:15.102Z,18.90
2023-01-17T12:01:43.772Z,18.96
2023-01-17T12:08:54.247Z,18.91
2023-01-17T12:16:33.184Z,18.90
2023-01-17T12:20:17.204Z,18.89
2023-01-17T12:23:40.535Z,18.84
2023-01-17T12:27:02.811Z,18.83
2023-01-17T12:30:09.170Z,18.68
2023-01-17T12:33:19.338Z,18.73
2023-01-17T12:36:20.357Z,18.63
2023-01-17T12:39:46.996Z,18.68
2023-01-17T12:42:37.053Z,18.61
2023-01-17T12:45:42.609Z,18.56
2023-01-17T12:48:21.513Z,18.61
2023-01-17T12:51:09.297Z,18.59
2023-01-17T12:54:19.658Z,18.59
2023-01-17T12:57:04.837Z,18.54
2023-01-17T13:00:08.418Z,18.55
2023-01-17T13:03:08.560Z,18.47
2023-01-17T13:05:46.737Z,18.44
2023-01-17T13:08:29.639Z,18.41
2023-01-17T13:11:30.745Z,18.40
2023-01-17T13:14:14.514Z,18.32
2023-01-17T13:16:59.549Z,18.29
2023-01-17T13:19:55.772Z,18.32
2023-01-17T13:22:31.710Z,18.27
2023-01-17T13:25:34.434Z,18.28
2023-01-17T13:28:28.016Z,18.23
2023-01-17T13:31:28.014Z,18.20
2023-01-17T13:34:31.657Z,18.20
2023-01-17T13:37:57.850Z,18.19
2023-01-17T13:41:35.148Z,18.15
2023-01-17T13:44:21.435Z,18.07
2023-01-17T13:47:06.663Z,18.07
2023-01-17T13:52:35.725Z,17.98
2023-01-17T13:55:53.356Z,18.03
2023-01-17T13:59:10.718Z,18.11
2023-01-17T14:01:46.278Z,18.07
2023-01-17T14:04:19.835Z,18.05
2023-01-17T14:06:59.529Z,18.10
2023-01-17T14:09:42.822Z,18.12
2023-01-17T14:12:21.754Z,18.15
2023-01-17T14:14:58.837Z,18.16
2023-01-17T14:17:53.140Z,18.20
2023-01-17T14:20:42.843Z,18.25
2023-01-17T14:23:32.171Z,18.27
2023-01-17T14:26:45.792Z,18.34
2023-01-17T14:30:00.172Z,18.38
2023-01-17T14:33:20.379Z,18.40
2023-01-17T14:36:06.417Z,18.33
2023-01-17T14:38:46.437Z,18.39
2023-01-17T14:41:38.059Z,18.47
2023-01-17T14:44:12.502Z,18.40
2023-01-17T14:46:57.149Z,18.49
2023-01-17T14:49:29.740Z,18.44
2023-01-17T14:56:33.436Z,18.58
2023-01-17T15:00:24.321Z,18.62
2023-01-17T15:03:17.176Z,18.52
2023-01-17T15:06:33.369Z,18.67
2023-01-17T15:09:20.123Z,18.57
2023-01-17T15:11:57.580Z,18.60
2023-01-17T15:14:46.720Z,18.68
2023-01-17T15:17:24.830Z,18.61
2023-01-17T15:20:08.339Z,18.61
2023-01-17T15:22:45.104Z,18.61
2023-01-17T15:25:23.651Z,18.57
2023-01-17T15:45:03.303Z,18.58
2023-01-17T15:47:47.974Z,18.56
2023-01-17T15:50:20.826Z,18.55
2023-01-17T15:53:05.185Z,18.53
2023-01-17T15:55:52.897Z,18.51
2023-01-17T15:58:30.314Z,18.42
2023-01-17T16:01:31.246Z,18.46
2023-01-17T16:04:43.294Z,18.48
2023-01-17T16:07:30.385Z,18.34
2023-01-17T16:10:40.268Z,18.35
2023-01-17T16:13:35.462Z,18.37
2023-01-17T16:16:14.546Z,18.32
2023-01-17T16:18:48.763Z,18.29
2023-01-17T16:21:31.269Z,18.42
2023-01-17T16:24:16.797Z,18.25
2023-01-17T16:26:55.194Z,18.18
2023-01-17T16:29:30.576Z,18.17
2023-01-17T16:32:52.792Z,18.24
2023-01-17T16:35:43.010Z,18.11
2023-01-17T16:38:19.837Z,18.13
2023-01-17T16:40:52.873Z,18.06
2023-01-17T16:43:33.775Z,17.98
2023-01-17T16:46:07.181Z,18.00
2023-01-17T16:48:55.400Z,17.97
2023-01-17T16:51:28.017Z,17.91
2023-01-17T16:54:10.364Z,17.89
2023-01-17T16:56:42.963Z,17.93
2023-01-17T16:59:32.200Z,17.90
2023-01-17T17:02:24.723Z,17.88
2023-01-17T17:05:19.621Z,17.90
2023-01-17T17:07:53.384Z,17.97
2023-01-17T17:10:27.697Z,17.80
2023-01-17T17:13:02.781Z,17.94
2023-01-17T17:15:35.609Z,17.75
2023-01-17T17:18:17.277Z,17.73
2023-01-17T17:20:49.782Z,17.69
2023-01-17T17:23:31.243Z,17.68
2023-01-17T17:26:04.349Z,17.60
2023-01-17T17:28:37.235Z,17.57
2023-01-17T17:31:13.018Z,17.57
2023-01-17T17:33:48.578Z,17.49
2023-01-17T17:36:38.246Z,17.54
2023-01-17T17:42:01.657Z,17.49
2023-01-17T17:44:35.106Z,17.52
2023-01-17T17:47:13.914Z,17.49
2023-01-17T17:49:46.585Z,17.50
2023-01-17T17:52:28.694Z,17.52
2023-01-17T17:55:08.052Z,17.55
2023-01-17T17:57:40.593Z,17.57
2023-01-17T18:00:23.092Z,17.59
2023-01-17T18:02:55.585Z,17.64
2023-01-17T18:05:28.354Z,17.67
2023-01-17T18:08:19.185Z,17.65
2023-01-17T18:11:11.443Z,17.67
2023-01-17T18:13:52.612Z,17.67
2023-01-17T18:16:41.725Z,17.73
2023-01-17T18:19:26.361Z,17.77
2023-01-17T18:22:08.182Z,17.95
2023-01-17T18:24:40.934Z,17.84
2023-01-17T18:27:14.169Z,17.85
2023-01-17T18:32:33.446Z,17.87
2023-01-17T18:35:06.872Z,17.87
2023-01-17T18:37:39.844Z,17.90
2023-01-17T18:40:20.734Z,17.90
2023-01-17T18:42:59.903Z,17.95
2023-01-17T18:45:32.522Z,17.95
2023-01-17T18:48:14.468Z,17.97
2023-01-17T18:51:09.978Z,17.98
2023-01-17T18:53:55.286Z,17.99
2023-01-17T18:56:34.297Z,17.99
2023-01-17T18:59:07.181Z,17.94
2023-01-17T19:01:43.878Z,17.96
2023-01-17T19:04:17.891Z,17.95
2023-01-17T19:06:50.842Z,17.95
2023-01-17T19:09:32.513Z,17.92
2023-01-17T19:12:05.455Z,17.87
2023-01-17T19:14:44.943Z,17.86
2023-01-17T19:17:23.611Z,17.85
2023-01-17T19:20:13.238Z,17.85
2023-01-17T19:22:45.935Z,17.86
2023-01-17T19:25:25.638Z,17.82
2023-01-17T19:27:58.619Z,17.79
2023-01-17T19:30:32.460Z,17.75
2023-01-17T19:33:05.686Z,17.75
2023-01-17T19:38:58.653Z,17.74
2023-01-17T19:41:46.744Z,17.70
2023-01-17T19:44:35.993Z,17.60
2023-01-17T19:47:10.925Z,17.64
2023-01-17T19:49:52.590Z,17.62
2023-01-17T19:52:30.951Z,17.53
2023-01-17T19:55:04.264Z,17.57
2023-01-17T19:57:37.673Z,17.56
2023-01-17T20:00:20.448Z,17.51
2023-01-17T20:03:12.606Z,17.45
2023-01-17T20:08:55.506Z,17.48
2023-01-17T20:11:45.485Z,17.43
2023-01-17T20:14:36.074Z,17.40
2023-01-17T20:17:14.829Z,17.33
2023-01-17T20:19:47.480Z,17.30
2023-01-17T20:22:23.247Z,17.28
2023-01-17T20:24:55.846Z,17.26
2023-01-17T20:27:35.106Z,17.19
2023-01-17T20:30:19.620Z,17.24
2023-01-17T20:32:52.899Z,17.24
2023-01-17T20:35:40.860Z,17.19
2023-01-17T20:38:13.406Z,17.18
2023-01-17T20:40:55.233Z,17.13
2023-01-17T20:43:27.887Z,17.16
2023-01-17T20:46:01.564Z,17.16
2023-01-17T20:48:34.578Z,17.14
2023-01-17T20:51:12.952Z,17.17
2023-01-17T20:53:59.807Z,17.18
2023-01-17T20:56:38.627Z,17.15
2023-01-17T20:59:23.649Z,17.24
2023-01-17T21:02:10.975Z,17.24
2023-01-17T21:04:46.420Z,17.19
2023-01-17T21:07:19.100Z,17.24
2023-01-17T21:09:53.160Z,17.32
2023-01-17T21:12:32.292Z,17.36
2023-01-17T21:15:05.577Z,17.38
2023-01-17T21:17:42.135Z,17.42
2023-01-17T21:20:27.439Z,17.36
2023-01-17T21:23:00.245Z,17.42
2023-01-17T21:25:38.809Z,17.48
2023-01-17T21:28:11.545Z,17.52
2023-01-17T21:30:45.964Z,17.53
2023-01-17T21:33:20.551Z,17.55
2023-01-17T21:35:53.367Z,17.59
2023-01-17T21:38:26.265Z,17.58
2023-01-17T21:41:05.456Z,17.60
2023-01-17T21:43:55.429Z,17.65
2023-01-17T21:46:38.969Z,17.60
2023-01-17T21:49:53.088Z,17.74
2023-01-17T21:52:25.748Z,17.70
2023-01-17T22:01:33.320Z,17.66
2023-01-17T22:04:06.132Z,17.63
2023-01-17T22:06:47.140Z,17.66
2023-01-17T22:09:35.177Z,17.62
2023-01-17T22:12:42.897Z,17.71
2023-01-17T22:15:16.952Z,17.66
2023-01-17T22:39:39.980Z,17.43
2023-01-17T22:42:14.065Z,17.47
2023-01-17T22:44:59.523Z,17.40
2023-01-17T22:50:42.394Z,17.42
2023-01-17T22:53:16.105Z,17.34
2023-01-17T22:56:32.393Z,17.34
2023-01-17T23:02:35.591Z,17.46
2023-01-17T23:06:37.860Z,17.29
2023-01-17T23:09:15.572Z,17.24
2023-01-17T23:11:55.412Z,17.17
2023-01-17T23:26:24.578Z,17.04
2023-01-17T23:29:03.765Z,17.05
2023-01-17T23:31:36.979Z,17.04
2023-01-17T23:34:09.538Z,16.99
2023-01-17T23:36:42.160Z,16.97
2023-01-17T23:39:24.606Z,16.99
2023-01-17T23:42:15.839Z,16.92
2023-01-17T23:44:48.335Z,16.93
2023-01-17T23:47:21.058Z,16.91
2023-01-17T23:49:53.629Z,16.86
2023-01-17T23:52:27.313Z,16.84
2023-01-17T23:54:59.880Z,16.86
2023-01-17T23:57:32.606Z,16.83
